Kendall, MI (49062)

6:17 PM EST on February 01, 2015 (GMT -0500)
Gobles | Change Station
CLOSE
Current Station
Personal Weather Station
Location: Gobles, MI
Elevation: 860 ft
Nearby Weather Stations
Active Advisory: Winter Storm Warning

Elev 860 ft 42.40 °N, 85.82 °W | Updated 4 minutes ago

Snow
Snow
14.5 °F
Feels Like 6 °F
N
5.3
Wind Variable Wind from NNE

Today
High -- | Low -- °F
--% Chance of Precip.
Yesterday
High -- | Low -- °F
Precip. -- in
7:57 AM 5:57 PM
Waxing Gibbous, 96% visible
Pressure 29.80 in
Visibility 0.2 miles
Clouds
Windchill 6 °F
Dew Point 14 °F
Humidity 97%
Rainfall 0.00 in
Snow Depth Not available.
UV Not available.
Pollen .10 out of 12
Air Quality Not available.
Flu Activity Not available.
METAR KAZO 012253Z 04013G22KT 1/4SM R35/3500V5000FT +SN VV011 M08/M11 A2976 RMK AO2 SLP091 P0003 T10831111

More Conditions Fewer Conditions

Pressure 29.80 in
Visibility 0.2 miles
Clouds
Windchill 6 °F
Dew Point 14 °F
Humidity 97%
Rainfall 0.00 in
Snow Depth Not available.
UV Not available.
Pollen .10 out of 12
Air Quality Not available.
Flu Activity Not available.
METAR KAZO 012253Z 04013G22KT 1/4SM R35/3500V5000FT +SN VV011 M08/M11 A2976 RMK AO2 SLP091 P0003 T10831111

More Conditions Fewer Conditions

10-Day Weather Forecast

Almanac

Astronomy

Feb. 01, 2015 Rise Set
Actual Time
Civil Twilight
Nautical Twilight
Astronomical Twilight
Moon
Length of Visible Light
Length of Day
Tomorrow will be .
, % of the Moon is Illuminated

Today's Extremes

State Highs State Lows

Community

WunderPhotos

Upload Photos

1,792,603 photos uploaded!

WunderBlogs® & News

Nearby

Air Quality

  Air Quality AQ Index Pollutant
Not available.

Snow Depth

Station Depth Elevation

Earthquake Activity

City Distance Mag. Time & Date
Minimum magnitude displayed is 2.5.

Coastal Water Temperatures

Place Temperature

Nearby Weather Stations